createdAt,value
2023-04-24T00:04:29.315Z,99686.03
2023-04-24T00:09:31.087Z,99687.09
2023-04-24T00:14:32.996Z,99684.78
2023-04-24T00:19:35.423Z,99693.91
2023-04-24T00:24:36.993Z,99692.22
2023-04-24T00:29:38.567Z,99702.38
2023-04-24T00:34:40.519Z,99705.72
2023-04-24T00:39:44.470Z,99705.72
2023-04-24T00:44:46.836Z,99701.94
2023-04-24T00:49:48.454Z,99703.41
2023-04-24T00:54:50.042Z,99717.13
2023-04-24T00:59:53.284Z,99713.72
2023-04-24T01:04:55.063Z,99710.53
2023-04-24T01:09:56.878Z,99719.78
2023-04-24T01:15:00.502Z,99709.81
2023-04-24T01:20:03.349Z,99723.69
2023-04-24T01:25:09.132Z,99724.38
2023-04-24T01:30:11.672Z,99727.28
2023-04-24T01:35:13.815Z,99727.66
2023-04-24T01:40:15.474Z,99727.16
2023-04-24T01:45:17.161Z,99732.16
2023-04-24T01:50:19.661Z,99730.84
2023-04-24T01:55:21.653Z,99737.19
2023-04-24T02:00:23.488Z,99741.94
2023-04-24T02:05:25.277Z,99735.78
2023-04-24T02:10:26.945Z,99745.31
2023-04-24T02:15:28.768Z,99749.31
2023-04-24T02:20:31.707Z,99737.53
2023-04-24T02:25:34.756Z,99738.88
2023-04-24T02:30:36.477Z,99750.78
2023-04-24T02:35:38.284Z,99750.28
2023-04-24T02:40:40.323Z,99739.75
2023-04-24T02:45:43.812Z,99739.69
2023-04-24T02:50:45.528Z,99745.25
2023-04-24T02:55:47.930Z,99742.72
2023-04-24T03:00:49.633Z,99748.25
2023-04-24T03:05:51.397Z,99750.13
2023-04-24T03:10:53.327Z,99744.84
2023-04-24T03:15:57.943Z,99756.75
2023-04-24T03:20:59.721Z,99756.75
2023-04-24T03:26:01.665Z,99760.34
2023-04-24T03:31:04.887Z,99763.25
2023-04-24T03:36:12.201Z,99767.28
2023-04-24T03:41:16.417Z,99765.91
2023-04-24T03:46:22.381Z,99761.13
2023-04-24T03:51:31.340Z,99768.28
2023-04-24T03:56:40.483Z,99773.59
2023-04-24T04:01:44.221Z,99774.22
2023-04-24T04:06:50.028Z,99781.59
2023-04-24T04:11:51.812Z,99777.81
2023-04-24T04:16:54.981Z,99786.63
2023-04-24T04:21:57.308Z,99793.31
2023-04-24T04:27:17.555Z,99808.00
2023-04-24T04:32:25.684Z,99810.44
2023-04-24T04:37:29.855Z,99818.06
2023-04-24T04:42:47.128Z,99827.66
2023-04-24T04:47:49.742Z,99842.25
2023-04-24T04:52:51.470Z,99859.97
2023-04-24T04:58:01.426Z,99870.69
2023-04-24T05:03:19.074Z,99882.00
2023-04-24T05:13:39.185Z,99914.44
2023-04-24T05:18:47.135Z,99938.94
2023-04-24T05:23:52.530Z,99941.31
2023-04-24T05:29:06.894Z,99954.03
2023-04-24T05:34:09.688Z,99973.38
2023-04-24T05:39:16.194Z,99990.53
2023-04-24T05:44:18.125Z,99996.75
2023-04-24T05:49:19.801Z,100003.38
2023-04-24T05:54:22.315Z,100024.69
2023-04-24T05:59:24.337Z,100035.34
2023-04-24T06:04:27.253Z,100036.38
2023-04-24T06:09:29.121Z,100043.44
2023-04-24T06:14:30.919Z,100063.69
2023-04-24T06:19:48.961Z,100076.28
2023-04-24T06:24:51.004Z,100100.88
2023-04-24T06:29:55.610Z,100106.59
2023-04-24T06:34:59.094Z,100113.34
2023-04-24T06:40:01.246Z,100121.09
2023-04-24T06:45:04.329Z,100141.97
2023-04-24T06:50:06.584Z,100159.34
2023-04-24T06:55:08.977Z,100162.06
2023-04-24T07:00:11.353Z,100182.06
2023-04-24T07:05:16.320Z,100193.66
2023-04-24T07:10:19.184Z,100192.44
2023-04-24T07:15:20.920Z,100203.19
2023-04-24T07:20:22.908Z,100211.09
2023-04-24T07:25:24.977Z,100232.97
2023-04-24T07:30:27.069Z,100239.31
2023-04-24T07:35:38.012Z,100251.38
2023-04-24T07:40:39.592Z,100262.59
2023-04-24T07:45:41.792Z,100272.34
2023-04-24T07:50:45.696Z,100289.94
2023-04-24T07:55:47.356Z,100302.78
2023-04-24T08:00:48.975Z,100298.22
2023-04-24T08:05:52.072Z,100307.56
2023-04-24T08:10:53.905Z,100323.19
2023-04-24T08:15:55.628Z,100332.41
2023-04-24T08:21:02.205Z,100341.38
2023-04-24T08:26:04.546Z,100349.22
2023-04-24T08:31:06.501Z,100363.25
2023-04-24T08:36:08.656Z,100365.56
2023-04-24T08:41:11.144Z,100365.28
2023-04-24T08:46:16.877Z,100375.03
2023-04-24T08:51:19.185Z,100388.41
2023-04-24T08:56:24.478Z,100394.88
2023-04-24T09:01:26.457Z,100397.41
2023-04-24T09:06:29.087Z,100416.69
2023-04-24T09:11:32.901Z,100411.53
2023-04-24T09:16:37.018Z,100423.47
2023-04-24T09:21:41.385Z,100424.56
2023-04-24T09:26:50.055Z,100423.13
2023-04-24T09:31:52.284Z,100427.97
2023-04-24T09:36:54.827Z,100437.75
2023-04-24T09:42:01.934Z,100445.16
2023-04-24T09:47:03.600Z,100447.41
2023-04-24T09:52:10.956Z,100471.38
2023-04-24T09:57:15.774Z,100476.69
2023-04-24T10:02:21.471Z,100480.84
2023-04-24T10:07:23.766Z,100495.66
2023-04-24T10:12:26.484Z,100488.41
2023-04-24T10:17:29.491Z,100486.84
2023-04-24T10:22:31.542Z,100498.91
2023-04-24T10:27:33.384Z,100498.16
2023-04-24T10:32:35.054Z,100509.25
2023-04-24T10:37:40.796Z,100520.19
2023-04-24T10:42:49.461Z,100524.06
2023-04-24T10:48:07.689Z,100527.56
2023-04-24T10:53:15.773Z,100532.81
2023-04-24T10:58:22.784Z,100548.66
2023-04-24T11:03:27.545Z,100549.69
2023-04-24T11:08:39.045Z,100552.81
2023-04-24T11:13:56.447Z,100566.38
2023-04-24T11:19:02.062Z,100568.84
2023-04-24T11:24:28.966Z,100568.53
2023-04-24T11:29:45.015Z,100569.78
2023-04-24T11:34:48.729Z,100569.38
2023-04-24T11:39:59.617Z,100578.81
2023-04-24T11:45:03.079Z,100583.13
2023-04-24T11:50:08.635Z,100589.19
2023-04-24T11:55:31.206Z,100610.63
2023-04-24T12:00:35.386Z,100612.09
2023-04-24T12:05:37.693Z,100619.47
2023-04-24T12:10:39.989Z,100625.53
2023-04-24T12:15:43.079Z,100617.38
2023-04-24T12:20:44.897Z,100642.69
2023-04-24T12:25:46.504Z,100643.13
2023-04-24T12:30:49.951Z,100649.47
2023-04-24T12:35:55.554Z,100664.13
2023-04-24T12:41:05.526Z,100654.13
2023-04-24T12:46:07.111Z,100660.78
2023-04-24T12:51:08.732Z,100678.56
2023-04-24T12:56:19.484Z,100684.59
2023-04-24T13:01:21.142Z,100693.09
2023-04-24T13:06:22.870Z,100696.50
2023-04-24T13:11:25.457Z,100699.50
2023-04-24T13:16:27.104Z,100694.72
2023-04-24T13:21:31.244Z,100702.66
2023-04-24T13:26:32.889Z,100695.38
2023-04-24T13:31:34.569Z,100704.03
2023-04-24T13:36:36.280Z,100717.91
2023-04-24T13:41:37.947Z,100719.63
2023-04-24T13:46:41.988Z,100707.56
2023-04-24T13:51:44.640Z,100706.38
2023-04-24T13:56:46.424Z,100708.22
2023-04-24T14:01:48.926Z,100708.00
2023-04-24T14:06:51.496Z,100719.38
2023-04-24T14:11:53.465Z,100714.09
2023-04-24T14:16:55.125Z,100714.63
2023-04-24T14:21:57.897Z,100724.31
2023-04-24T14:26:59.545Z,100714.50
2023-04-24T14:32:01.310Z,100726.81
2023-04-24T14:37:03.368Z,100731.94
2023-04-24T14:42:05.010Z,100725.69
2023-04-24T14:47:06.954Z,100718.59
2023-04-24T14:52:08.635Z,100727.56
2023-04-24T14:57:10.357Z,100734.03
2023-04-24T15:02:16.326Z,100746.97
2023-04-24T15:07:18.557Z,100745.38
2023-04-24T15:12:22.597Z,100749.09
2023-04-24T15:17:24.331Z,100762.75
2023-04-24T15:22:27.099Z,100756.94
2023-04-24T15:27:28.756Z,100753.03
2023-04-24T15:32:30.543Z,100751.75
2023-04-24T15:37:32.362Z,100758.78
2023-04-24T15:42:34.061Z,100759.25
2023-04-24T15:47:36.366Z,100773.75
2023-04-24T15:52:38.094Z,100767.41
2023-04-24T15:57:40.352Z,100768.78
2023-04-24T16:02:45.373Z,100771.19
2023-04-24T16:07:48.616Z,100773.53
2023-04-24T16:12:51.782Z,100775.16
2023-04-24T16:17:53.401Z,100777.75
2023-04-24T16:22:55.061Z,100781.16
2023-04-24T16:27:57.212Z,100779.66
2023-04-24T16:32:59.097Z,100778.97
2023-04-24T16:38:02.304Z,100780.88
2023-04-24T16:43:03.984Z,100774.91
2023-04-24T16:48:05.807Z,100780.72
2023-04-24T16:53:07.551Z,100791.97
2023-04-24T16:58:09.235Z,100782.25
2023-04-24T17:03:12.420Z,100798.09
2023-04-24T17:08:15.002Z,100802.28
2023-04-24T17:13:16.625Z,100804.59
2023-04-24T17:18:18.396Z,100812.25
2023-04-24T17:23:21.077Z,100810.09
2023-04-24T17:28:31.148Z,100805.66
2023-04-24T17:33:32.982Z,100810.84
2023-04-24T17:38:34.812Z,100802.16
2023-04-24T17:43:38.339Z,100815.75
2023-04-24T17:48:40.128Z,100816.34
2023-04-24T17:53:43.489Z,100807.59
2023-04-24T17:58:45.455Z,100809.72
2023-04-24T18:03:47.393Z,100805.69
2023-04-24T18:08:49.375Z,100815.84
2023-04-24T18:13:51.483Z,100819.41
2023-04-24T18:18:53.990Z,100827.13
2023-04-24T18:23:55.849Z,100826.97
2023-04-24T18:28:57.526Z,100833.09
2023-04-24T18:33:59.241Z,100831.69
2023-04-24T18:39:00.920Z,100836.78
2023-04-24T18:44:02.529Z,100848.84
2023-04-24T18:49:04.552Z,100858.84
2023-04-24T18:54:06.243Z,100860.31
2023-04-24T18:59:07.957Z,100871.81
2023-04-24T19:04:09.557Z,100868.00
2023-04-24T19:09:11.150Z,100883.00
2023-04-24T19:14:16.318Z,100887.78
2023-04-24T19:19:18.039Z,100892.44
2023-04-24T19:24:21.169Z,100898.81
2023-04-24T19:29:22.961Z,100914.09
2023-04-24T19:34:25.224Z,100907.41
2023-04-24T19:39:26.984Z,100919.59
2023-04-24T19:44:28.637Z,100923.19
2023-04-24T19:49:30.946Z,100936.22
2023-04-24T19:54:32.518Z,100935.38
2023-04-24T19:59:34.190Z,100937.63
2023-04-24T20:04:36.126Z,100953.03
2023-04-24T20:09:38.113Z,100949.50
2023-04-24T20:14:39.732Z,100953.97
2023-04-24T20:19:44.678Z,100955.50
2023-04-24T20:24:46.566Z,100954.47
2023-04-24T20:29:48.199Z,100958.78
2023-04-24T20:34:49.872Z,100960.16
2023-04-24T20:39:52.057Z,100953.97
2023-04-24T20:44:53.689Z,100968.03
2023-04-24T20:49:55.361Z,100968.41
2023-04-24T20:54:57.173Z,100972.16
2023-04-24T20:59:58.891Z,100979.41
2023-04-24T21:05:04.124Z,100976.63
2023-04-24T21:10:06.330Z,100972.16
2023-04-24T21:15:08.392Z,100973.66
2023-04-24T21:20:10.561Z,100971.75
2023-04-24T21:25:12.258Z,100963.19
2023-04-24T21:30:15.122Z,100963.19
2023-04-24T21:35:16.764Z,100972.97
2023-04-24T21:40:18.508Z,100968.31
2023-04-24T21:45:20.569Z,100966.59
2023-04-24T21:50:22.163Z,100964.59
2023-04-24T21:55:24.142Z,100963.88
2023-04-24T22:00:25.933Z,100965.41
2023-04-24T22:05:27.836Z,100969.00
2023-04-24T22:10:29.725Z,100977.31
2023-04-24T22:15:31.536Z,100976.22
2023-04-24T22:20:33.607Z,100975.16
2023-04-24T22:25:35.521Z,100986.13
2023-04-24T22:30:37.177Z,100982.97
2023-04-24T22:35:38.792Z,100982.13
2023-04-24T22:40:42.494Z,100992.22
2023-04-24T22:45:44.203Z,100994.16
2023-04-24T22:50:45.970Z,100998.78
2023-04-24T22:55:47.572Z,100987.16
2023-04-24T23:00:49.270Z,100992.97
2023-04-24T23:05:50.897Z,100990.25
2023-04-24T23:10:52.972Z,100990.91
2023-04-24T23:15:54.917Z,100989.31
2023-04-24T23:20:57.282Z,100992.22
2023-04-24T23:25:59.758Z,100999.59
2023-04-24T23:31:01.385Z,101002.19
2023-04-24T23:36:03.379Z,101002.09
2023-04-24T23:41:05.105Z,101003.81
2023-04-24T23:46:07.399Z,101006.72
2023-04-24T23:51:09.109Z,101009.25
2023-04-24T23:56:11.291Z,101010.69
